Parkdale, Arkansas
Current Conditions -  °F | °C
As of 2:15 PM on Saturday 20 Dec 2014 (Local Time) from KBQP Reporting Station
Clear Clear  
Wind Chill: 56°   Ceiling: Unl
Heat Index: 56°   Visibility: 10mi
Dew Point: 41°   Wind: 6mph
Humidity: 56%   Direction: 60°ENE
Pressure: 30.19"   Gusts: NA
Location:  33.12°N, 91.55°W
Report Text: KBQP 202015Z AUTO 06005KT 10SM CLR 13/05 A3019 RMK AO2 T01330048
Loading
Personal Weather Stations






























Interactive Weather Map New forecast layout! Learn more

10-Day Weather Forecast

Advertisements
Track Severe Weather on mobile